Time;durP1;ratioP1;P1;durP2;ratioP2;P2;SDS_P1;SDS_P2;PMS_P1;PMS_P2;Temp;Humidity;BMP_temperature;BMP_pressure;BME280_temperature;BME280_humidity;BME280_pressure;Samples;Min_cycle;Max_cycle;Signal;HPM_P1;HPM_P2
2023/11/28 00:00:02;;;;;;;2.53;2.13;;;;;;;0.06;64.69;92870.94;507184;29;1956;-71
2023/11/28 00:00:18;;;;;;;2.30;1.92;;;;;;;0.08;64.67;92868.47;508147;28;2006;-71
2023/11/28 00:00:33;;;;;;;2.90;2.40;;;;;;;0.10;64.76;92871.44;508831;28;1960;-72
2023/11/28 00:00:49;;;;;;;2.53;2.33;;;;;;;0.13;64.57;92875.13;509824;28;3832;-71
2023/11/28 00:01:05;;;;;;;2.67;2.43;;;;;;;0.15;64.54;92875.38;508826;28;1958;-72
2023/11/28 00:01:20;;;;;;;3.50;2.50;;;;;;;0.18;64.76;92868.94;507772;28;2459;-71
2023/11/28 00:01:36;;;;;;;3.73;2.60;;;;;;;0.21;64.54;92876.09;507211;28;2135;-72
2023/11/28 00:01:52;;;;;;;3.97;3.17;;;;;;;0.22;64.67;92883.72;506742;28;2835;-71
2023/11/28 00:02:07;;;;;;;3.80;3.10;;;;;;;0.26;64.36;92886.94;506756;28;1850;-71
2023/11/28 00:02:23;;;;;;;3.42;2.70;;;;;;;0.29;64.85;92880.53;507582;28;1833;-72
2023/11/28 00:02:39;;;;;;;2.83;2.53;;;;;;;0.32;64.68;92881.50;507688;28;2131;-72
2023/11/28 00:02:54;;;;;;;3.22;2.65;;;;;;;0.35;64.73;92883.22;508145;28;1093;-72
2023/11/28 00:03:10;;;;;;;4.22;3.00;;;;;;;0.37;64.30;92880.78;509122;28;2031;-71
2023/11/28 00:03:25;;;;;;;3.83;2.77;;;;;;;0.40;64.93;92879.75;507173;28;3499;-72
2023/11/28 00:03:42;;;;;;;4.13;2.92;;;;;;;0.41;64.36;92886.69;507909;28;1849;-72
2023/11/28 00:03:57;;;;;;;4.65;3.17;;;;;;;0.42;64.81;92885.44;508620;28;1794;-71
2023/11/28 00:04:13;;;;;;;4.82;3.28;;;;;;;0.45;64.36;92884.44;508392;28;3239;-71
2023/11/28 00:04:28;;;;;;;5.33;3.60;;;;;;;0.47;64.15;92887.41;505893;28;1769;-71
2023/11/28 00:04:44;;;;;;;5.20;3.55;;;;;;;0.49;64.47;92887.66;508079;28;1961;-71
2023/11/28 00:04:59;;;;;;;4.67;3.37;;;;;;;0.50;64.26;92883.69;508999;28;3813;-72
2023/11/28 00:05:15;;;;;;;5.53;3.35;;;;;;;0.51;63.61;92879.72;509684;28;1082;-71
2023/11/28 00:05:30;;;;;;;6.10;3.53;;;;;;;0.52;63.63;92881.22;506272;28;3521;-72
2023/11/28 00:05:46;;;;;;;4.83;3.63;;;;;;;0.51;63.41;92882.44;507836;28;1986;-72
2023/11/28 00:06:02;;;;;;;5.43;3.80;;;;;;;0.52;63.48;92883.94;506020;28;3439;-72
2023/11/28 00:06:18;;;;;;;5.72;3.63;;;;;;;0.53;63.35;92885.41;507970;28;2195;-72
2023/11/28 00:06:33;;;;;;;5.03;3.75;;;;;;;0.54;63.51;92884.19;507236;28;1925;-71
2023/11/28 00:06:51;;;;;;;6.57;4.67;;;;;;;0.57;63.75;92888.59;508397;28;1121;-71
2023/11/28 00:07:07;;;;;;;6.82;4.95;;;;;;;0.58;63.65;92887.38;507887;28;2166;-71
2023/11/28 00:07:22;;;;;;;5.45;4.50;;;;;;;0.58;63.48;92890.84;508352;28;2169;-71
2023/11/28 00:07:38;;;;;;;6.57;4.80;;;;;;;0.59;63.23;92876.00;508892;28;1053;-71
2023/11/28 00:07:53;;;;;;;8.63;5.25;;;;;;;0.61;63.33;92886.38;507369;28;3271;-71
2023/11/28 00:08:09;;;;;;;10.77;6.00;;;;;;;0.62;63.42;92883.16;508738;28;1921;-72
2023/11/28 00:08:26;;;;;;;10.70;6.60;;;;;;;0.64;63.47;92883.41;506950;28;3131;-71
2023/11/28 00:08:41;;;;;;;9.38;5.97;;;;;;;0.68;63.89;92885.84;509471;28;2024;-71
2023/11/28 00:08:57;;;;;;;8.90;5.73;;;;;;;0.71;63.69;92879.44;507680;29;2400;-72
2023/11/28 00:09:12;;;;;;;8.15;5.70;;;;;;;0.73;63.32;92882.41;506418;29;1806;-71
2023/11/28 00:09:28;;;;;;;9.20;5.87;;;;;;;0.74;63.23;92881.88;507733;29;1839;-71
2023/11/28 00:09:45;;;;;;;10.00;6.05;;;;;;;0.75;63.50;92877.94;507860;29;2446;-71
2023/11/28 00:10:01;;;;;;;7.72;5.53;;;;;;;0.68;63.44;92881.16;507531;29;2004;-71
2023/11/28 00:10:16;;;;;;;7.35;5.43;;;;;;;0.70;63.37;92875.97;507683;29;1983;-71
2023/11/28 00:10:32;;;;;;;5.30;4.07;;;;;;;0.69;62.78;92874.47;506142;29;3466;-71
2023/11/28 00:10:47;;;;;;;3.47;2.80;;;;;;;0.74;62.54;92873.00;507708;28;1323;-72
2023/11/28 00:11:03;;;;;;;4.17;3.17;;;;;;;0.73;62.07;92872.28;508487;28;3229;-71
2023/11/28 00:11:19;;;;;;;4.85;3.38;;;;;;;0.74;61.83;92870.28;510050;28;955;-72
2023/11/28 00:11:35;;;;;;;4.38;3.28;;;;;;;0.76;62.26;92871.25;507789;28;3817;-71
2023/11/28 00:11:52;;;;;;;3.97;3.20;;;;;;;0.79;61.90;92866.81;508377;28;1969;-71
2023/11/28 00:12:08;;;;;;;4.20;3.20;;;;;;;0.81;62.51;92871.72;508183;28;2174;-71
2023/11/28 00:12:24;;;;;;;5.45;3.75;;;;;;;0.82;62.04;92857.66;508611;28;1951;-71
2023/11/28 00:12:39;;;;;;;5.35;4.00;;;;;;;0.83;62.20;92861.84;509204;28;2177;-71
2023/11/28 00:12:56;;;;;;;4.97;4.03;;;;;;;0.83;62.65;92859.13;507851;28;2463;-71
2023/11/28 00:13:12;;;;;;;5.97;4.00;;;;;;;0.85;62.42;92867.50;506957;28;1829;-71
2023/11/28 00:13:30;;;;;;;5.50;3.78;;;;;;;0.79;63.26;92864.09;508652;28;2182;-71
2023/11/28 00:13:46;;;;;;;3.90;3.40;;;;;;;0.80;63.04;92862.84;508954;28;1927;-71
2023/11/28 00:14:02;;;;;;;4.00;3.58;;;;;;;0.81;63.09;92855.44;507414;28;3653;-71
2023/11/28 00:14:17;;;;;;;3.85;3.40;;;;;;;0.81;62.54;92867.03;507969;28;3584;-71
2023/11/28 00:14:32;;;;;;;3.77;3.20;;;;;;;0.77;63.39;92856.44;507856;28;3567;-71
2023/11/28 00:14:49;;;;;;;3.88;3.13;;;;;;;0.77;62.95;92855.69;508481;28;2047;-71
2023/11/28 00:15:05;;;;;;;3.00;2.45;;;;;;;0.78;63.29;92852.47;507883;28;1874;-71
2023/11/28 00:15:20;;;;;;;2.50;1.98;;;;;;;0.78;63.17;92854.44;508491;28;1849;-71
2023/11/28 00:15:36;;;;;;;2.72;1.95;;;;;;;0.81;62.48;92855.44;508822;28;1952;-71
2023/11/28 00:15:52;;;;;;;3.23;2.10;;;;;;;0.82;62.31;92854.94;508692;28;2230;-71
2023/11/28 00:16:08;;;;;;;2.47;1.92;;;;;;;0.85;62.07;92855.91;507161;28;2216;-71
2023/11/28 00:16:23;;;;;;;2.03;1.80;;;;;;;0.87;61.98;92858.88;509405;28;2001;-71
2023/11/28 00:16:39;;;;;;;1.90;1.70;;;;;;;0.89;62.18;92864.56;508338;28;2023;-71
2023/11/28 00:16:54;;;;;;;2.27;2.00;;;;;;;0.92;61.71;92867.00;508783;28;2014;-71
2023/11/28 00:17:10;;;;;;;3.10;2.70;;;;;;;0.93;61.97;92863.06;508694;28;2008;-71
2023/11/28 00:17:25;;;;;;;3.67;2.90;;;;;;;0.94;62.04;92864.50;508305;28;3259;-71
2023/11/28 00:17:40;;;;;;;3.97;2.83;;;;;;;0.96;61.98;92864.00;508519;28;1954;-71
2023/11/28 00:17:56;;;;;;;3.60;2.80;;;;;;;0.97;61.58;92858.09;508760;28;3041;-71
2023/11/28 00:18:11;;;;;;;3.00;2.70;;;;;;;0.99;61.82;92863.00;508690;28;1248;-72
2023/11/28 00:18:27;;;;;;;3.55;2.92;;;;;;;1.01;62.27;92857.81;507567;28;3186;-72
2023/11/28 00:18:43;;;;;;;4.37;3.33;;;;;;;1.02;61.90;92862.75;507344;28;3936;-72
2023/11/28 00:18:58;;;;;;;4.40;3.42;;;;;;;1.04;61.73;92868.41;507551;28;1894;-72
2023/11/28 00:19:14;;;;;;;3.75;3.10;;;;;;;1.06;62.42;92863.22;507074;28;3511;-72
2023/11/28 00:19:30;;;;;;;4.53;3.27;;;;;;;1.07;62.08;92855.81;508339;28;1006;-72
2023/11/28 00:19:45;;;;;;;4.72;3.38;;;;;;;1.09;62.02;92866.91;507361;28;3120;-71
2023/11/28 00:20:00;;;;;;;4.00;2.80;;;;;;;1.06;61.83;92857.78;507952;28;3461;-72
2023/11/28 00:20:16;;;;;;;4.07;2.95;;;;;;;1.08;61.81;92855.31;507702;28;2682;-72
2023/11/28 00:20:31;;;;;;;3.97;3.23;;;;;;;1.09;61.91;92862.22;507927;28;3164;-72
2023/11/28 00:20:47;;;;;;;3.97;3.17;;;;;;;1.09;62.21;92859.50;507589;28;2584;-72
2023/11/28 00:21:02;;;;;;;3.97;3.10;;;;;;;1.11;62.24;92861.72;508708;28;2009;-72
2023/11/28 00:21:18;;;;;;;3.78;2.80;;;;;;;1.12;62.00;92855.78;508184;28;2188;-72
2023/11/28 00:21:33;;;;;;;3.50;2.60;;;;;;;1.13;62.34;92854.53;506846;28;3281;-72
2023/11/28 00:21:49;;;;;;;4.55;2.90;;;;;;;1.08;61.54;92863.47;507625;28;3170;-72
2023/11/28 00:22:04;;;;;;;5.03;3.13;;;;;;;1.07;61.86;92858.53;508689;28;2007;-72
2023/11/28 00:22:20;;;;;;;4.20;2.92;;;;;;;1.02;62.00;92859.31;507793;28;3186;-72
2023/11/28 00:22:35;;;;;;;4.57;3.00;;;;;;;0.98;62.09;92850.66;507194;28;3239;-72
2023/11/28 00:22:50;;;;;;;4.53;3.03;;;;;;;0.97;62.43;92860.81;508386;28;2018;-72
2023/11/28 00:23:06;;;;;;;3.57;2.90;;;;;;;0.98;62.53;92854.13;509253;28;1844;-71
2023/11/28 00:23:22;;;;;;;3.60;3.05;;;;;;;1.00;62.11;92845.44;508201;28;3344;-71
2023/11/28 00:23:37;;;;;;;4.43;3.07;;;;;;;0.81;62.26;92820.84;507819;28;3252;-71
2023/11/28 00:23:53;;;;;;;4.30;2.95;;;;;;;1.06;62.13;92851.63;508996;28;1864;-71
2023/11/28 00:24:08;;;;;;;4.93;3.13;;;;;;;1.08;62.09;92858.03;506501;28;3755;-71
2023/11/28 00:24:23;;;;;;;4.57;2.95;;;;;;;1.11;61.21;92845.41;508460;28;3355;-71
2023/11/28 00:24:39;;;;;;;3.00;2.63;;;;;;;1.13;60.88;92848.34;507955;28;1972;-71
2023/11/28 00:24:55;;;;;;;3.53;2.78;;;;;;;1.15;61.35;92849.34;508867;28;1857;-71
2023/11/28 00:25:10;;;;;;;3.33;2.77;;;;;;;1.17;60.84;92844.13;508212;28;2219;-71
2023/11/28 00:25:26;;;;;;;3.20;2.90;;;;;;;1.19;61.06;92844.38;506897;28;3525;-71
2023/11/28 00:25:42;;;;;;;3.70;2.92;;;;;;;1.19;60.87;92847.09;508977;28;1023;-71
2023/11/28 00:25:57;;;;;;;4.80;3.25;;;;;;;1.22;61.07;92842.63;507883;28;3462;-71
2023/11/28 00:26:14;;;;;;;3.93;3.00;;;;;;;1.24;61.12;92840.88;508001;28;2027;-71
2023/11/28 00:26:29;;;;;;;3.35;2.90;;;;;;;1.26;61.11;92834.94;505471;28;3238;-70
2023/11/28 00:26:45;;;;;;;3.73;3.23;;;;;;;1.28;61.11;92837.88;509653;28;1937;-72
2023/11/28 00:27:01;;;;;;;3.50;3.20;;;;;;;1.29;61.55;92834.69;508817;28;2003;-72
2023/11/28 00:27:16;;;;;;;4.67;3.60;;;;;;;1.31;61.27;92836.88;508645;28;1794;-72
2023/11/28 00:27:32;;;;;;;5.15;3.67;;;;;;;1.34;61.13;92838.63;508257;28;3456;-71
2023/11/28 00:27:48;;;;;;;5.63;3.92;;;;;;;1.35;61.53;92834.63;507714;28;1956;-71
2023/11/28 00:28:05;;;;;;;5.20;3.90;;;;;;;1.34;60.83;92835.91;509120;28;2077;-71
2023/11/28 00:28:20;;;;;;;4.43;3.72;;;;;;;1.36;61.68;92833.41;507788;28;2029;-72
2023/11/28 00:28:36;;;;;;;4.90;3.73;;;;;;;1.29;60.99;92834.69;508930;28;2195;-71
2023/11/28 00:28:52;;;;;;;4.72;3.55;;;;;;;1.28;61.63;92833.19;507636;28;1662;-71
2023/11/28 00:29:08;;;;;;;4.35;3.22;;;;;;;1.28;61.50;92830.47;508834;28;3050;-71
2023/11/28 00:29:23;;;;;;;4.43;3.23;;;;;;;1.31;61.25;92834.16;508427;28;1876;-71
2023/11/28 00:29:39;;;;;;;4.80;3.70;;;;;;;1.21;60.95;92836.44;507581;28;2481;-71
2023/11/28 00:29:54;;;;;;;5.70;3.67;;;;;;;1.13;62.15;92838.22;507913;28;3013;-71
2023/11/28 00:30:10;;;;;;;6.15;3.58;;;;;;;1.11;61.91;92840.72;507669;28;1956;-71
2023/11/28 00:30:26;;;;;;;4.55;3.50;;;;;;;1.11;62.12;92840.72;507615;28;3379;-71
2023/11/28 00:30:41;;;;;;;5.10;3.33;;;;;;;1.10;62.45;92839.25;506031;28;3105;-71
2023/11/28 00:30:56;;;;;;;6.57;3.67;;;;;;;1.10;61.73;92843.94;509474;28;2062;-71
2023/11/28 00:31:12;;;;;;;6.23;4.03;;;;;;;1.11;62.07;92848.88;506999;28;1895;-71
2023/11/28 00:31:27;;;;;;;5.47;4.05;;;;;;;1.12;61.42;92842.19;507538;28;3372;-72
2023/11/28 00:31:43;;;;;;;5.17;3.97;;;;;;;1.13;61.91;92843.66;506894;28;3089;-71
2023/11/28 00:32:00;;;;;;;5.47;4.15;;;;;;;1.16;61.94;92841.91;507794;28;1924;-71
2023/11/28 00:32:16;;;;;;;6.30;4.22;;;;;;;1.19;61.68;92847.09;507499;28;2358;-72
2023/11/28 00:32:31;;;;;;;6.53;4.10;;;;;;;1.20;61.97;92840.41;507687;28;1920;-72
2023/11/28 00:32:46;;;;;;;5.33;3.93;;;;;;;1.23;61.47;92842.13;507534;28;3264;-71
2023/11/28 00:33:02;;;;;;;4.23;3.80;;;;;;;1.26;61.28;92840.38;508454;28;1888;-71
2023/11/28 00:33:18;;;;;;;3.90;3.50;;;;;;;1.26;62.12;92837.66;507612;28;3425;-71
2023/11/28 00:33:33;;;;;;;3.83;3.40;;;;;;;1.26;61.36;92849.28;507468;28;3393;-72
2023/11/28 00:33:48;;;;;;;4.53;3.70;;;;;;;1.28;61.41;92843.31;507296;28;3207;-71
2023/11/28 00:34:04;;;;;;;4.23;3.43;;;;;;;1.27;61.89;92839.16;507884;28;2064;-71
2023/11/28 00:34:22;;;;;;;3.55;3.22;;;;;;;1.25;61.62;92838.91;509359;28;2118;-71
2023/11/28 00:34:37;;;;;;;3.20;2.90;;;;;;;1.23;62.09;92836.69;505791;28;3282;-72
2023/11/28 00:34:53;;;;;;;3.57;2.77;;;;;;;1.21;61.96;92836.44;506793;28;2371;-72
2023/11/28 00:35:08;;;;;;;3.17;2.72;;;;;;;1.21;61.93;92833.72;507658;28;1976;-71
2023/11/28 00:35:24;;;;;;;3.10;2.65;;;;;;;1.22;61.61;92837.19;509045;28;3394;-71
2023/11/28 00:35:40;;;;;;;3.50;2.63;;;;;;;1.20;61.90;92839.66;509886;28;1624;-71
2023/11/28 00:35:55;;;;;;;3.47;2.72;;;;;;;1.17;61.78;92827.81;508112;28;3312;-71
2023/11/28 00:36:10;;;;;;;4.40;2.57;;;;;;;1.15;62.00;92832.31;509353;28;1818;-72
2023/11/28 00:36:27;;;;;;;4.03;2.28;;;;;;;1.14;61.87;92839.72;508601;28;3712;-71
2023/11/28 00:36:42;;;;;;;3.05;2.25;;;;;;;1.15;61.92;92833.03;506419;28;3341;-71
2023/11/28 00:36:58;;;;;;;3.30;2.40;;;;;;;1.10;61.81;92836.53;506442;28;4147;-71
2023/11/28 00:37:13;;;;;;;2.37;2.17;;;;;;;1.09;61.35;92832.31;508076;28;1931;-71
2023/11/28 00:37:29;;;;;;;2.30;1.98;;;;;;;1.06;61.87;92824.44;507842;28;2380;-71
2023/11/28 00:37:44;;;;;;;3.13;2.13;;;;;;;1.01;61.83;92830.63;508564;28;3140;-71
2023/11/28 00:38:00;;;;;;;4.27;2.50;;;;;;;0.98;61.61;92832.38;508352;28;2256;-71
2023/11/28 00:38:15;;;;;;;4.15;2.70;;;;;;;0.96;61.83;92844.97;507660;28;2281;-71
2023/11/28 00:38:31;;;;;;;2.87;2.53;;;;;;;0.89;61.77;92835.38;507128;28;3237;-71
2023/11/28 00:38:46;;;;;;;2.88;2.50;;;;;;;0.88;61.45;92839.34;508180;28;3181;-71
2023/11/28 00:39:03;;;;;;;3.13;2.20;;;;;;;0.86;61.49;92825.53;508908;28;2160;-70
2023/11/28 00:39:18;;;;;;;2.85;2.08;;;;;;;0.90;61.96;92833.41;508882;28;1841;-71
2023/11/28 00:39:35;;;;;;;2.92;2.10;;;;;;;0.89;61.80;92835.38;507407;28;3538;-71
2023/11/28 00:39:50;;;;;;;2.47;2.00;;;;;;;0.87;61.95;92829.00;507470;28;3503;-71
2023/11/28 00:40:08;;;;;;;2.55;2.00;;;;;;;0.86;61.99;92822.06;507625;28;2369;-71
2023/11/28 00:40:27;;;;;;;2.78;2.20;;;;;;;0.83;62.11;92831.22;507789;28;1845;-71
2023/11/28 00:40:44;;;;;;;2.13;1.92;;;;;;;0.79;61.15;92823.34;508883;28;2254;-72
2023/11/28 00:40:59;;;;;;;1.75;1.60;;;;;;;0.79;60.71;92828.75;508061;28;1938;-72
2023/11/28 00:41:14;;;;;;;2.30;1.70;;;;;;;0.70;60.97;92821.66;509143;28;2041;-71
2023/11/28 00:41:32;;;;;;;2.28;1.80;;;;;;;0.71;60.96;92835.97;507261;28;3840;-71
2023/11/28 00:41:48;;;;;;;2.60;1.67;;;;;;;0.74;60.67;92843.09;506037;28;3267;-71
2023/11/28 00:42:05;;;;;;;4.15;1.63;;;;;;;0.69;60.72;92833.72;508317;28;1125;-71
2023/11/28 00:42:20;;;;;;;3.50;1.50;;;;;;;0.68;60.60;92837.72;505800;28;2189;-73
2023/11/28 00:42:35;;;;;;;1.70;1.60;;;;;;;0.68;60.56;92831.53;507261;28;3673;-72
2023/11/28 00:42:51;;;;;;;3.22;1.70;;;;;;;0.70;60.57;92834.47;508389;28;3551;-71
2023/11/28 00:43:08;;;;;;;3.57;1.60;;;;;;;0.68;60.36;92828.81;508773;28;1904;-71
2023/11/28 00:43:24;;;;;;;2.45;1.50;;;;;;;0.68;60.05;92845.09;508199;28;2070;-71
2023/11/28 00:43:39;;;;;;;1.60;1.35;;;;;;;0.71;59.69;92842.13;505022;28;2450;-71
2023/11/28 00:43:55;;;;;;;1.50;1.37;;;;;;;0.75;59.92;92831.00;508466;28;3264;-71
2023/11/28 00:44:11;;;;;;;2.95;1.85;;;;;;;0.80;59.86;92826.78;505409;28;2236;-71
2023/11/28 00:44:27;;;;;;;3.33;1.90;;;;;;;0.83;59.30;92837.38;508664;28;3172;-71
2023/11/28 00:44:42;;;;;;;2.55;1.73;;;;;;;0.89;58.91;92832.66;508183;28;1778;-71
2023/11/28 00:44:58;;;;;;;2.58;1.95;;;;;;;0.92;58.78;92828.22;508855;28;976;-71
2023/11/28 00:45:14;;;;;;;2.33;2.10;;;;;;;0.96;58.61;92834.84;506938;28;2096;-71
2023/11/28 00:45:30;;;;;;;2.17;1.98;;;;;;;0.98;58.91;92832.38;508285;28;1711;-71
2023/11/28 00:45:45;;;;;;;2.40;1.88;;;;;;;1.01;58.50;92836.06;507897;28;3165;-71
2023/11/28 00:46:01;;;;;;;2.10;1.65;;;;;;;1.04;58.77;92827.66;508709;28;951;-71
2023/11/28 00:46:18;;;;;;;1.97;1.80;;;;;;;1.06;58.75;92824.44;506421;28;1819;-71
2023/11/28 00:46:38;;;;;;;2.33;2.08;;;;;;;1.07;58.56;92832.09;507571;28;3425;-71
2023/11/28 00:46:54;;;;;;;2.38;2.17;;;;;;;1.06;59.29;92829.88;509901;28;2044;-71
2023/11/28 00:47:09;;;;;;;2.40;2.00;;;;;;;1.05;59.48;92826.41;508923;28;1984;-71
2023/11/28 00:47:25;;;;;;;2.00;1.77;;;;;;;1.04;59.37;92830.34;505844;29;3320;-71
2023/11/28 00:47:43;;;;;;;1.47;1.37;;;;;;;1.04;59.71;92824.94;506265;28;2230;-71
2023/11/28 00:47:59;;;;;;;1.40;1.30;;;;;;;1.02;59.08;92823.97;507741;28;1011;-71
2023/11/28 00:48:14;;;;;;;1.77;1.67;;;;;;;1.02;59.37;92819.25;508212;28;3962;-71
2023/11/28 00:48:29;;;;;;;3.20;1.70;;;;;;;1.03;59.40;92828.16;509049;28;1239;-71
2023/11/28 00:48:47;;;;;;;2.97;1.40;;;;;;;1.05;60.00;92820.97;509978;28;2494;-71
2023/11/28 00:49:02;;;;;;;1.50;1.30;;;;;;;1.06;60.20;92817.00;509378;28;3117;-71
2023/11/28 00:49:17;;;;;;;1.45;1.33;;;;;;;1.07;60.12;92818.50;509128;28;2489;-71
2023/11/28 00:49:33;;;;;;;1.80;1.60;;;;;;;1.10;60.19;92814.78;508920;28;1979;-71
2023/11/28 00:49:49;;;;;;;2.20;1.67;;;;;;;1.12;60.19;92812.28;509377;28;3506;-71
2023/11/28 00:50:05;;;;;;;1.73;1.60;;;;;;;1.15;60.15;92819.44;509719;28;3159;-71
2023/11/28 00:50:21;;;;;;;1.98;1.75;;;;;;;1.14;59.92;92812.53;509320;28;2325;-71
2023/11/28 00:50:36;;;;;;;4.28;1.90;;;;;;;1.14;59.78;92814.50;506207;28;2162;-71
2023/11/28 00:50:52;;;;;;;4.70;1.80;;;;;;;1.16;59.86;92818.19;508455;28;1948;-71
2023/11/28 00:51:08;;;;;;;3.22;1.90;;;;;;;1.18;60.08;92815.72;509674;28;1831;-71
2023/11/28 00:51:23;;;;;;;3.00;1.93;;;;;;;1.20;60.30;92810.50;508451;28;3315;-71
2023/11/28 00:51:43;;;;;;;2.78;1.90;;;;;;;1.17;60.35;92803.34;509299;28;1979;-71
2023/11/28 00:51:58;;;;;;;3.05;1.73;;;;;;;1.19;60.49;92811.75;509305;28;2020;-70
2023/11/28 00:52:17;;;;;;;2.20;1.63;;;;;;;1.20;60.09;92807.03;508463;28;4253;-71
2023/11/28 00:52:32;;;;;;;2.70;2.28;;;;;;;1.20;60.60;92804.31;508471;28;1880;-71
2023/11/28 00:52:48;;;;;;;2.47;2.25;;;;;;;1.19;60.70;92811.75;508314;28;1793;-70
2023/11/28 00:53:04;;;;;;;2.40;2.15;;;;;;;1.15;60.61;92802.41;509194;28;1811;-71
2023/11/28 00:53:19;;;;;;;2.38;2.15;;;;;;;1.13;60.27;92804.84;506958;28;3714;-71
2023/11/28 00:53:35;;;;;;;2.17;1.97;;;;;;;1.13;60.62;92799.41;507880;28;3590;-71
2023/11/28 00:53:50;;;;;;;2.33;2.13;;;;;;;1.13;60.61;92802.88;506294;28;3101;-71
2023/11/28 00:54:06;;;;;;;4.07;2.60;;;;;;;1.16;60.75;92798.44;506937;28;3868;-71
2023/11/28 00:54:21;;;;;;;4.73;2.87;;;;;;;1.17;60.88;92799.91;510092;28;1002;-71
2023/11/28 00:54:38;;;;;;;3.43;2.63;;;;;;;1.18;60.84;92799.41;509008;28;2108;-71
2023/11/28 00:54:53;;;;;;;3.15;2.60;;;;;;;1.14;60.87;92795.47;509079;28;1945;-71
2023/11/28 00:55:08;;;;;;;3.20;2.43;;;;;;;1.13;60.59;92800.16;506757;28;3600;-71
2023/11/28 00:55:24;;;;;;;3.43;2.43;;;;;;;1.16;60.96;92795.72;507983;28;2410;-71
2023/11/28 00:55:39;;;;;;;4.07;2.70;;;;;;;1.16;60.78;92793.72;507544;28;2402;-71
2023/11/28 00:55:55;;;;;;;3.67;2.50;;;;;;;1.17;60.80;92789.75;507605;28;1508;-71
2023/11/28 00:56:18;;;;;;;3.00;2.35;;;;;;;1.16;60.48;92777.41;507212;28;3627;-71
2023/11/28 00:56:34;;;;;;;3.47;2.40;;;;;;;1.16;60.89;92788.28;506471;28;2507;-71
2023/11/28 00:56:50;;;;;;;3.10;2.10;;;;;;;1.16;60.90;92782.84;507528;28;2233;-71
2023/11/28 00:57:07;;;;;;;2.50;2.20;;;;;;;1.18;60.85;92783.09;506178;29;1988;-71
2023/11/28 00:57:23;;;;;;;2.85;2.40;;;;;;;1.12;60.47;92778.94;506691;29;2228;-71
2023/11/28 00:57:38;;;;;;;2.50;2.30;;;;;;;1.10;60.87;92782.16;505809;29;2239;-71
2023/11/28 00:57:54;;;;;;;3.28;2.40;;;;;;;1.12;61.00;92779.69;508416;29;2007;-71
2023/11/28 00:58:09;;;;;;;3.40;2.35;;;;;;;1.10;60.90;92778.69;506576;29;2026;-71
2023/11/28 00:58:25;;;;;;;3.13;2.30;;;;;;;1.09;61.27;92783.38;505598;29;3191;-71
2023/11/28 00:58:40;;;;;;;3.05;2.08;;;;;;;1.09;60.96;92777.22;505340;29;3150;-71
2023/11/28 00:58:56;;;;;;;3.00;2.30;;;;;;;1.11;60.50;92780.16;507720;28;1878;-71
2023/11/28 00:59:12;;;;;;;3.08;2.53;;;;;;;1.08;60.53;92773.78;508646;28;2230;-71
2023/11/28 00:59:28;;;;;;;3.13;2.30;;;;;;;1.09;60.81;92777.94;506957;28;3430;-71
2023/11/28 00:59:43;;;;;;;3.15;2.30;;;;;;;1.06;60.77;92770.78;507516;28;3723;-71
2023/11/28 00:59:59;;;;;;;2.77;2.30;;;;;;;1.06;61.26;92773.50;507894;28;2238;-71
2023/11/28 01:00:15;;;;;;;2.78;2.17;;;;;;;1.05;60.39;92765.88;506460;28;2681;-71
2023/11/28 01:00:31;;;;;;;2.58;2.13;;;;;;;0.98;60.58;92769.88;508542;28;2451;-71
2023/11/28 01:00:46;;;;;;;2.75;2.17;;;;;;;1.02;60.96;92772.34;507517;28;3847;-71
2023/11/28 01:01:03;;;;;;;2.90;2.20;;;;;;;1.03;61.24;92774.53;508055;28;2157;-71
2023/11/28 01:01:18;;;;;;;3.53;2.30;;;;;;;0.97;60.61;92762.97;505220;28;2775;-71
2023/11/28 01:01:34;;;;;;;3.13;2.33;;;;;;;1.01;60.35;92776.28;507449;28;3122;-71
2023/11/28 01:01:49;;;;;;;3.60;2.27;;;;;;;0.98;60.34;92769.88;507837;28;1956;-72
2023/11/28 01:02:05;;;;;;;3.27;2.10;;;;;;;0.97;60.19;92779.28;507952;28;3387;-71
2023/11/28 01:02:21;;;;;;;2.05;1.83;;;;;;;0.97;60.25;92770.38;507821;28;2622;-71
2023/11/28 01:02:37;;;;;;;1.88;1.50;;;;;;;0.97;60.68;92768.41;509810;28;2110;-71
2023/11/28 01:02:53;;;;;;;2.22;1.63;;;;;;;0.96;61.00;92775.06;508768;28;1869;-71
2023/11/28 01:03:08;;;;;;;2.60;1.90;;;;;;;0.97;60.44;92771.13;507632;28;1066;-71
2023/11/28 01:03:24;;;;;;;4.07;2.05;;;;;;;0.98;60.95;92771.84;506540;28;3429;-71
2023/11/28 01:03:39;;;;;;;4.83;2.00;;;;;;;1.00;61.24;92777.50;505775;28;2328;-71
2023/11/28 01:03:55;;;;;;;3.47;1.83;;;;;;;1.00;61.25;92777.50;508444;28;1852;-71
2023/11/28 01:04:10;;;;;;;2.07;1.83;;;;;;;1.01;60.94;92776.28;507893;28;2066;-72
2023/11/28 01:04:26;;;;;;;2.47;2.27;;;;;;;1.02;61.01;92778.47;507698;28;2451;-71
2023/11/28 01:04:41;;;;;;;4.07;2.83;;;;;;;1.04;61.09;92776.00;508693;28;1957;-71
2023/11/28 01:04:57;;;;;;;4.32;2.85;;;;;;;1.06;61.35;92776.22;508426;28;1659;-71
2023/11/28 01:05:13;;;;;;;3.88;2.47;;;;;;;1.06;61.49;92773.50;508712;28;2141;-71
2023/11/28 01:05:29;;;;;;;3.22;2.13;;;;;;;1.08;61.26;92776.50;507388;28;2513;-71
2023/11/28 01:05:45;;;;;;;2.45;2.20;;;;;;;1.10;60.96;92781.41;505128;28;2105;-71
2023/11/28 01:06:00;;;;;;;2.97;2.50;;;;;;;1.08;60.88;92775.75;508814;28;2158;-71
2023/11/28 01:06:16;;;;;;;2.80;2.30;;;;;;;1.09;60.97;92767.09;507471;28;3419;-71
2023/11/28 01:06:31;;;;;;;2.40;2.08;;;;;;;1.09;60.55;92772.50;507244;28;2667;-73
2023/11/28 01:06:47;;;;;;;2.50;2.20;;;;;;;1.09;60.50;92774.50;506280;28;3220;-71
2023/11/28 01:07:02;;;;;;;2.77;2.20;;;;;;;1.08;59.49;92771.06;508210;28;2132;-71
2023/11/28 01:07:18;;;;;;;3.40;2.05;;;;;;;1.10;60.02;92773.25;506228;28;2628;-71
2023/11/28 01:07:33;;;;;;;3.30;2.20;;;;;;;1.10;59.96;92775.97;508294;28;943;-71
2023/11/28 01:07:49;;;;;;;2.40;2.20;;;;;;;1.09;60.28;92777.94;507115;28;3382;-71
2023/11/28 01:08:04;;;;;;;4.97;2.37;;;;;;;1.09;60.98;92772.50;509024;28;3442;-71
2023/11/28 01:08:20;;;;;;;5.73;2.80;;;;;;;1.12;61.01;92776.22;506012;28;1821;-71
2023/11/28 01:08:36;;;;;;;3.47;2.53;;;;;;;1.12;60.81;92768.81;507602;28;3858;-71
2023/11/28 01:08:51;;;;;;;3.13;2.33;;;;;;;1.12;61.09;92782.41;505856;28;2135;-71
2023/11/28 01:09:07;;;;;;;3.60;2.25;;;;;;;1.13;60.75;92770.25;508244;28;3477;-71
2023/11/28 01:09:22;;;;;;;3.50;2.30;;;;;;;0.97;60.47;92757.53;507128;28;1889;-72
2023/11/28 01:09:38;;;;;;;2.55;2.30;;;;;;;1.05;60.54;92768.59;507806;28;2713;-71
2023/11/28 01:09:53;;;;;;;2.50;2.13;;;;;;;1.07;60.48;92769.56;507062;28;1893;-71
2023/11/28 01:10:09;;;;;;;2.88;2.22;;;;;;;1.02;60.93;92764.19;505836;28;2456;-71
2023/11/28 01:10:24;;;;;;;2.97;2.50;;;;;;;0.98;61.36;92766.41;508497;28;1192;-72
2023/11/28 01:10:40;;;;;;;3.15;2.70;;;;;;;0.98;60.70;92769.13;508144;28;2342;-71
2023/11/28 01:10:55;;;;;;;2.63;2.30;;;;;;;0.95;60.44;92781.75;508522;28;1171;-71
2023/11/28 01:11:11;;;;;;;2.10;1.90;;;;;;;0.91;60.69;92770.41;507625;28;2155;-71
2023/11/28 01:11:26;;;;;;;2.07;1.80;;;;;;;0.91;60.21;92773.13;509525;28;1053;-72
2023/11/28 01:11:42;;;;;;;1.75;1.65;;;;;;;0.90;59.81;92770.91;508417;28;3310;-71
2023/11/28 01:11:57;;;;;;;1.83;1.70;;;;;;;0.92;59.89;92771.88;508867;28;1801;-70
2023/11/28 01:12:13;;;;;;;2.63;1.70;;;;;;;0.94;59.77;92768.66;507823;28;2051;-71
2023/11/28 01:12:28;;;;;;;2.93;2.10;;;;;;;0.96;59.93;92766.91;508686;28;3453;-71
2023/11/28 01:12:44;;;;;;;2.80;2.10;;;;;;;0.98;60.26;92763.69;505827;28;3198;-71
2023/11/28 01:12:59;;;;;;;2.30;1.83;;;;;;;0.97;60.64;92760.25;509105;28;2076;-71
2023/11/28 01:13:15;;;;;;;2.20;2.00;;;;;;;1.01;60.48;92758.00;506717;28;3209;-71
2023/11/28 01:13:30;;;;;;;2.23;1.97;;;;;;;1.02;60.48;92756.75;508399;28;1828;-71
2023/11/28 01:13:46;;;;;;;2.03;1.60;;;;;;;1.07;60.06;92760.66;506758;28;2415;-71
2023/11/28 01:14:02;;;;;;;2.00;1.80;;;;;;;1.12;60.39;92765.34;508987;28;2015;-71
2023/11/28 01:14:19;;;;;;;5.63;2.10;;;;;;;1.14;60.04;92760.88;508926;28;2125;-70
2023/11/28 01:14:35;;;;;;;5.57;1.80;;;;;;;1.17;60.54;92757.13;507499;28;3437;-71
2023/11/28 01:14:50;;;;;;;2.17;1.73;;;;;;;1.16;59.82;92757.66;507978;28;3060;-71
2023/11/28 01:15:08;;;;;;;2.03;1.80;;;;;;;1.14;59.96;92755.44;509434;28;1912;-71
2023/11/28 01:15:23;;;;;;;2.05;1.88;;;;;;;1.13;59.42;92759.38;508809;28;899;-71
2023/11/28 01:15:38;;;;;;;2.35;2.10;;;;;;;1.16;60.01;92754.94;506548;28;3162;-71
2023/11/28 01:15:57;;;;;;;2.93;2.20;;;;;;;1.17;59.73;92754.41;508540;28;1845;-71
2023/11/28 01:16:13;;;;;;;2.60;2.17;;;;;;;1.21;60.09;92754.16;508816;28;2154;-71
2023/11/28 01:16:28;;;;;;;2.70;2.23;;;;;;;1.23;59.85;92755.13;508347;28;2352;-71
2023/11/28 01:16:47;;;;;;;2.65;2.08;;;;;;;1.24;59.79;92756.59;509512;28;2143;-71
2023/11/28 01:17:06;;;;;;;3.38;2.30;;;;;;;1.27;59.54;92757.56;509810;28;3178;-71